sensor_id;sensor_type;location;lat;lon;timestamp;pressure;altitude;pressure_sealevel;temperature;humidity
32735;BME280;19112;51.076;3.706;2024-02-28T00:02:18;101241.88;;;3.52;79.02
32735;BME280;19112;51.076;3.706;2024-02-28T00:04:47;101711.94;;;6.02;79.08
32735;BME280;19112;51.076;3.706;2024-02-28T00:07:13;102045.41;;;7.95;79.34
32735;BME280;19112;51.076;3.706;2024-02-28T00:09:39;101223.72;;;3.65;79.17
32735;BME280;19112;51.076;3.706;2024-02-28T00:12:06;101576.16;;;4.93;78.88
32735;BME280;19112;51.076;3.706;2024-02-28T00:14:32;101508.03;;;5.25;79.59
32735;BME280;19112;51.076;3.706;2024-02-28T00:16:58;101726.84;;;6.04;79.60
32735;BME280;19112;51.076;3.706;2024-02-28T00:19:24;101711.28;;;6.46;79.41
32735;BME280;19112;51.076;3.706;2024-02-28T00:21:51;101325.41;;;3.85;79.61
32735;BME280;19112;51.076;3.706;2024-02-28T00:24:18;101622.28;;;5.47;79.60
32735;BME280;19112;51.076;3.706;2024-02-28T00:26:45;101536.28;;;4.67;79.62
32735;BME280;19112;51.076;3.706;2024-02-28T00:29:11;101981.09;;;7.70;80.02
32735;BME280;19112;51.076;3.706;2024-02-28T00:31:38;101053.94;;;2.46;79.45
32735;BME280;19112;51.076;3.706;2024-02-28T00:34:04;101191.38;;;3.22;79.72
32735;BME280;19112;51.076;3.706;2024-02-28T00:36:30;101547.66;;;4.94;79.42
32735;BME280;19112;51.076;3.706;2024-02-28T00:38:56;101643.91;;;5.59;79.73
32735;BME280;19112;51.076;3.706;2024-02-28T00:41:23;101248.38;;;3.59;79.49
32735;BME280;19112;51.076;3.706;2024-02-28T00:43:48;101226.28;;;2.89;79.70
32735;BME280;19112;51.076;3.706;2024-02-28T00:46:14;101206.69;;;3.31;79.96
32735;BME280;19112;51.076;3.706;2024-02-28T00:48:40;101683.16;;;5.36;79.89
32735;BME280;19112;51.076;3.706;2024-02-28T00:51:07;101365.81;;;3.68;79.90
32735;BME280;19112;51.076;3.706;2024-02-28T00:53:34;101533.16;;;5.11;80.34
32735;BME280;19112;51.076;3.706;2024-02-28T00:56:00;101688.03;;;5.83;80.36
32735;BME280;19112;51.076;3.706;2024-02-28T00:58:25;101431.19;;;4.26;79.83
32735;BME280;19112;51.076;3.706;2024-02-28T01:00:53;101817.19;;;6.44;80.15
32735;BME280;19112;51.076;3.706;2024-02-28T01:03:20;101823.22;;;6.56;80.49
32735;BME280;19112;51.076;3.706;2024-02-28T01:05:46;101159.72;;;2.40;79.54
32735;BME280;19112;51.076;3.706;2024-02-28T01:08:13;101157.09;;;3.01;79.48
32735;BME280;19112;51.076;3.706;2024-02-28T01:10:39;101055.53;;;1.82;79.57
32735;BME280;19112;51.076;3.706;2024-02-28T01:13:04;101665.34;;;5.29;80.11
32735;BME280;19112;51.076;3.706;2024-02-28T01:15:30;101068.16;;;2.39;79.21
32735;BME280;19112;51.076;3.706;2024-02-28T01:17:57;101994.22;;;7.44;80.05
32735;BME280;19112;51.076;3.706;2024-02-28T01:20:23;101588.63;;;5.37;79.75
32735;BME280;19112;51.076;3.706;2024-02-28T01:22:49;100698.03;;;0.26;79.40
32735;BME280;19112;51.076;3.706;2024-02-28T01:25:15;101159.44;;;2.85;79.52
32735;BME280;19112;51.076;3.706;2024-02-28T01:27:41;101896.66;;;6.89;79.96
32735;BME280;19112;51.076;3.706;2024-02-28T01:30:10;101909.00;;;6.65;79.41
32735;BME280;19112;51.076;3.706;2024-02-28T01:32:36;101410.22;;;4.36;79.04
32735;BME280;19112;51.076;3.706;2024-02-28T01:35:02;101575.41;;;5.20;79.41
32735;BME280;19112;51.076;3.706;2024-02-28T01:37:29;101012.63;;;1.97;78.86
32735;BME280;19112;51.076;3.706;2024-02-28T01:39:55;101747.59;;;6.16;79.50
32735;BME280;19112;51.076;3.706;2024-02-28T01:42:21;101413.72;;;4.23;79.11
32735;BME280;19112;51.076;3.706;2024-02-28T01:44:48;101939.63;;;7.20;79.96
32735;BME280;19112;51.076;3.706;2024-02-28T01:47:16;101486.88;;;4.54;79.54
32735;BME280;19112;51.076;3.706;2024-02-28T01:49:43;101752.59;;;5.87;79.29
32735;BME280;19112;51.076;3.706;2024-02-28T01:52:12;101190.31;;;2.57;79.27
32735;BME280;19112;51.076;3.706;2024-02-28T01:54:38;101405.78;;;4.08;79.27
32735;BME280;19112;51.076;3.706;2024-02-28T01:57:05;101496.88;;;4.48;79.40
32735;BME280;19112;51.076;3.706;2024-02-28T01:59:33;101297.59;;;3.32;79.47
32735;BME280;19112;51.076;3.706;2024-02-28T02:02:00;101655.66;;;5.01;79.83
32735;BME280;19112;51.076;3.706;2024-02-28T02:04:27;101299.69;;;3.38;79.57
32735;BME280;19112;51.076;3.706;2024-02-28T02:06:52;101382.81;;;3.76;79.31
32735;BME280;19112;51.076;3.706;2024-02-28T02:09:20;102013.84;;;7.11;79.63
32735;BME280;19112;51.076;3.706;2024-02-28T02:11:46;100727.69;;;-0.28;78.59
32735;BME280;19112;51.076;3.706;2024-02-28T02:14:14;101184.81;;;2.52;79.39
32735;BME280;19112;51.076;3.706;2024-02-28T02:16:40;101235.59;;;2.62;79.54
32735;BME280;19112;51.076;3.706;2024-02-28T02:19:09;101827.44;;;6.14;79.73
32735;BME280;19112;51.076;3.706;2024-02-28T02:21:56;101618.03;;;4.71;80.09
32735;BME280;19112;51.076;3.706;2024-02-28T02:24:24;102003.28;;;6.96;80.04
32735;BME280;19112;51.076;3.706;2024-02-28T02:26:55;101086.28;;;1.66;79.98
32735;BME280;19112;51.076;3.706;2024-02-28T02:29:21;101051.44;;;1.86;80.53
32735;BME280;19112;51.076;3.706;2024-02-28T02:31:47;101144.75;;;1.87;80.50
32735;BME280;19112;51.076;3.706;2024-02-28T02:34:13;101546.25;;;4.48;80.76
32735;BME280;19112;51.076;3.706;2024-02-28T02:36:39;101600.66;;;4.83;80.21
32735;BME280;19112;51.076;3.706;2024-02-28T02:39:06;101541.81;;;3.97;80.62
32735;BME280;19112;51.076;3.706;2024-02-28T02:41:34;101549.16;;;4.28;80.41
32735;BME280;19112;51.076;3.706;2024-02-28T02:44:01;101145.75;;;1.89;80.22
32735;BME280;19112;51.076;3.706;2024-02-28T02:46:27;101569.34;;;4.95;80.41
32735;BME280;19112;51.076;3.706;2024-02-28T02:48:52;101589.66;;;4.49;80.42
32735;BME280;19112;51.076;3.706;2024-02-28T02:51:19;102038.84;;;7.07;81.19
32735;BME280;19112;51.076;3.706;2024-02-28T02:53:45;101214.91;;;2.39;80.42
32735;BME280;19112;51.076;3.706;2024-02-28T02:56:12;102020.56;;;7.07;81.06
32735;BME280;19112;51.076;3.706;2024-02-28T02:58:38;101116.19;;;1.74;80.64
32735;BME280;19112;51.076;3.706;2024-02-28T03:01:05;101335.97;;;3.50;81.15
32735;BME280;19112;51.076;3.706;2024-02-28T03:03:31;101192.78;;;2.67;81.57
32735;BME280;19112;51.076;3.706;2024-02-28T03:05:56;101201.81;;;3.10;81.63
32735;BME280;19112;51.076;3.706;2024-02-28T03:08:23;101297.38;;;3.54;81.59
32735;BME280;19112;51.076;3.706;2024-02-28T03:10:49;101756.81;;;6.11;82.08
32735;BME280;19112;51.076;3.706;2024-02-28T03:13:15;101145.94;;;3.02;82.01
32735;BME280;19112;51.076;3.706;2024-02-28T03:15:41;101110.19;;;2.98;82.06
32735;BME280;19112;51.076;3.706;2024-02-28T03:18:07;101027.75;;;2.54;81.97
32735;BME280;19112;51.076;3.706;2024-02-28T03:20:33;101552.34;;;5.00;82.71
32735;BME280;19112;51.076;3.706;2024-02-28T03:23:02;101765.22;;;6.34;82.26
32735;BME280;19112;51.076;3.706;2024-02-28T03:25:28;101583.41;;;6.03;82.41
32735;BME280;19112;51.076;3.706;2024-02-28T03:27:54;101719.03;;;6.72;82.11
32735;BME280;19112;51.076;3.706;2024-02-28T03:30:21;101353.88;;;4.48;82.13
32735;BME280;19112;51.076;3.706;2024-02-28T03:32:47;100873.72;;;1.73;81.58
32735;BME280;19112;51.076;3.706;2024-02-28T03:35:13;101270.19;;;4.40;81.67
32735;BME280;19112;51.076;3.706;2024-02-28T03:37:40;101229.00;;;3.93;81.91
32735;BME280;19112;51.076;3.706;2024-02-28T03:40:07;101627.94;;;5.93;82.35
32735;BME280;19112;51.076;3.706;2024-02-28T03:42:34;100960.69;;;2.59;81.46
32735;BME280;19112;51.076;3.706;2024-02-28T03:45:02;101093.72;;;3.49;81.72
32735;BME280;19112;51.076;3.706;2024-02-28T03:47:29;101253.03;;;4.16;81.80
32735;BME280;19112;51.076;3.706;2024-02-28T03:49:55;101289.03;;;4.78;81.52
32735;BME280;19112;51.076;3.706;2024-02-28T03:52:23;101460.94;;;5.48;81.27
32735;BME280;19112;51.076;3.706;2024-02-28T03:54:49;100869.84;;;2.18;81.55
32735;BME280;19112;51.076;3.706;2024-02-28T03:57:18;101719.97;;;7.16;81.91
32735;BME280;19112;51.076;3.706;2024-02-28T03:59:45;101388.72;;;5.18;81.62
32735;BME280;19112;51.076;3.706;2024-02-28T04:02:11;100787.16;;;1.81;81.16
32735;BME280;19112;51.076;3.706;2024-02-28T04:04:36;101476.56;;;6.03;81.81
32735;BME280;19112;51.076;3.706;2024-02-28T04:07:04;101719.75;;;6.98;81.72
32735;BME280;19112;51.076;3.706;2024-02-28T04:09:30;101797.06;;;7.67;81.40
32735;BME280;19112;51.076;3.706;2024-02-28T04:11:56;101847.91;;;7.86;81.63
32735;BME280;19112;51.076;3.706;2024-02-28T04:14:22;101727.03;;;7.76;81.53
32735;BME280;19112;51.076;3.706;2024-02-28T04:16:48;101256.28;;;4.53;80.68
32735;BME280;19112;51.076;3.706;2024-02-28T04:19:16;101698.69;;;7.67;80.78
32735;BME280;19112;51.076;3.706;2024-02-28T04:21:41;101570.00;;;6.53;81.31
32735;BME280;19112;51.076;3.706;2024-02-28T04:24:08;101588.94;;;7.08;81.22
32735;BME280;19112;51.076;3.706;2024-02-28T04:26:35;101199.91;;;4.80;80.32
32735;BME280;19112;51.076;3.706;2024-02-28T04:29:02;101640.00;;;7.32;80.84
32735;BME280;19112;51.076;3.706;2024-02-28T04:31:33;101150.31;;;4.49;80.40
32735;BME280;19112;51.076;3.706;2024-02-28T04:33:59;101442.16;;;5.67;80.25
32735;BME280;19112;51.076;3.706;2024-02-28T04:36:25;101117.94;;;4.44;79.70
32735;BME280;19112;51.076;3.706;2024-02-28T04:38:52;101485.84;;;6.13;80.32
32735;BME280;19112;51.076;3.706;2024-02-28T04:41:17;101266.38;;;5.03;79.95
32735;BME280;19112;51.076;3.706;2024-02-28T04:43:43;101398.03;;;5.84;80.31
32735;BME280;19112;51.076;3.706;2024-02-28T04:46:09;101595.25;;;6.54;80.43
32735;BME280;19112;51.076;3.706;2024-02-28T04:48:36;101217.63;;;4.72;80.02
32735;BME280;19112;51.076;3.706;2024-02-28T04:51:03;101327.00;;;5.43;80.00
32735;BME280;19112;51.076;3.706;2024-02-28T04:53:29;101435.66;;;6.02;79.87
32735;BME280;19112;51.076;3.706;2024-02-28T04:55:54;101717.94;;;7.69;79.84
32735;BME280;19112;51.076;3.706;2024-02-28T04:58:20;102045.44;;;9.10;80.41
32735;BME280;19112;51.076;3.706;2024-02-28T05:00:46;102071.34;;;9.20;80.57
32735;BME280;19112;51.076;3.706;2024-02-28T05:03:12;101789.88;;;7.92;80.21
32735;BME280;19112;51.076;3.706;2024-02-28T05:05:39;101378.53;;;5.77;80.14
32735;BME280;19112;51.076;3.706;2024-02-28T05:08:06;101034.19;;;3.65;79.63
32735;BME280;19112;51.076;3.706;2024-02-28T05:10:33;101980.66;;;9.22;80.17
32735;BME280;19112;51.076;3.706;2024-02-28T05:13:01;101315.81;;;5.74;80.05
32735;BME280;19112;51.076;3.706;2024-02-28T05:15:29;100828.22;;;2.81;79.53
32735;BME280;19112;51.076;3.706;2024-02-28T05:17:56;101507.03;;;6.76;80.04
32735;BME280;19112;51.076;3.706;2024-02-28T05:20:22;101859.31;;;8.61;79.86
32735;BME280;19112;51.076;3.706;2024-02-28T05:22:49;101375.66;;;5.44;79.93
32735;BME280;19112;51.076;3.706;2024-02-28T05:25:15;101611.81;;;7.42;79.82
32735;BME280;19112;51.076;3.706;2024-02-28T05:27:41;101062.22;;;4.26;79.31
32735;BME280;19112;51.076;3.706;2024-02-28T05:30:09;101250.00;;;5.19;79.81
32735;BME280;19112;51.076;3.706;2024-02-28T05:32:35;100747.56;;;2.76;79.36
32735;BME280;19112;51.076;3.706;2024-02-28T05:35:02;101478.88;;;6.86;79.91
32735;BME280;19112;51.076;3.706;2024-02-28T05:37:28;101708.22;;;8.27;80.09
32735;BME280;19112;51.076;3.706;2024-02-28T05:39:54;101468.09;;;6.79;79.85
32735;BME280;19112;51.076;3.706;2024-02-28T05:42:19;101172.75;;;5.33;79.06
32735;BME280;19112;51.076;3.706;2024-02-28T05:44:50;101789.00;;;8.83;79.52
32735;BME280;19112;51.076;3.706;2024-02-28T05:47:17;101210.47;;;5.11;79.21
32735;BME280;19112;51.076;3.706;2024-02-28T05:49:44;101444.31;;;6.90;79.45
32735;BME280;19112;51.076;3.706;2024-02-28T05:52:10;101708.59;;;8.19;79.80
32735;BME280;19112;51.076;3.706;2024-02-28T05:54:36;101727.25;;;8.39;79.49
32735;BME280;19112;51.076;3.706;2024-02-28T05:57:02;101719.75;;;8.62;79.44
32735;BME280;19112;51.076;3.706;2024-02-28T05:59:30;101731.38;;;8.67;79.67
32735;BME280;19112;51.076;3.706;2024-02-28T06:01:56;101664.91;;;8.32;79.61
32735;BME280;19112;51.076;3.706;2024-02-28T06:04:21;101778.63;;;8.69;79.38
32735;BME280;19112;51.076;3.706;2024-02-28T06:06:47;101254.56;;;5.95;79.22
32735;BME280;19112;51.076;3.706;2024-02-28T06:09:16;101571.13;;;7.76;79.36
32735;BME280;19112;51.076;3.706;2024-02-28T06:11:41;101727.84;;;8.35;78.95
32735;BME280;19112;51.076;3.706;2024-02-28T06:14:09;101795.06;;;8.82;79.41
32735;BME280;19112;51.076;3.706;2024-02-28T06:16:37;101640.63;;;8.04;78.92
32735;BME280;19112;51.076;3.706;2024-02-28T06:19:03;101523.38;;;7.33;78.85
32735;BME280;19112;51.076;3.706;2024-02-28T06:21:29;101606.78;;;7.91;78.99
32735;BME280;19112;51.076;3.706;2024-02-28T06:23:56;101002.06;;;4.77;78.17
32735;BME280;19112;51.076;3.706;2024-02-28T06:26:22;101290.22;;;6.41;78.49
32735;BME280;19112;51.076;3.706;2024-02-28T06:28:50;101432.97;;;7.04;78.72
32735;BME280;19112;51.076;3.706;2024-02-28T06:31:17;101692.84;;;8.33;78.57
32735;BME280;19112;51.076;3.706;2024-02-28T06:33:47;101423.44;;;6.90;78.73
32735;BME280;19112;51.076;3.706;2024-02-28T06:36:13;101241.69;;;5.84;78.49
32735;BME280;19112;51.076;3.706;2024-02-28T06:38:40;101225.78;;;6.23;78.71
32735;BME280;19112;51.076;3.706;2024-02-28T06:41:06;101635.91;;;8.13;78.95
32735;BME280;19112;51.076;3.706;2024-02-28T06:43:36;101235.06;;;5.89;78.65
32735;BME280;19112;51.076;3.706;2024-02-28T06:46:03;101275.00;;;6.48;78.56
32735;BME280;19112;51.076;3.706;2024-02-28T06:48:29;101574.91;;;7.67;78.45
32735;BME280;19112;51.076;3.706;2024-02-28T06:50:56;101800.19;;;9.44;78.82
32735;BME280;19112;51.076;3.706;2024-02-28T06:53:23;100945.56;;;4.45;78.37
32735;BME280;19112;51.076;3.706;2024-02-28T06:55:50;101738.94;;;9.10;78.72
32735;BME280;19112;51.076;3.706;2024-02-28T06:58:16;101399.69;;;6.85;78.42
32735;BME280;19112;51.076;3.706;2024-02-28T07:00:41;101707.50;;;8.77;78.67
32735;BME280;19112;51.076;3.706;2024-02-28T07:03:07;101616.97;;;8.48;78.72
32735;BME280;19112;51.076;3.706;2024-02-28T07:05:34;101184.47;;;6.00;78.64
32735;BME280;19112;51.076;3.706;2024-02-28T07:08:00;101950.44;;;10.09;78.49
32735;BME280;19112;51.076;3.706;2024-02-28T07:10:26;101185.81;;;5.78;77.82
32735;BME280;19112;51.076;3.706;2024-02-28T07:12:53;101857.78;;;9.59;78.30
32735;BME280;19112;51.076;3.706;2024-02-28T07:15:19;101835.22;;;9.63;78.43
32735;BME280;19112;51.076;3.706;2024-02-28T07:17:48;101274.72;;;6.44;77.87
32735;BME280;19112;51.076;3.706;2024-02-28T07:20:14;101634.19;;;8.45;78.19
32735;BME280;19112;51.076;3.706;2024-02-28T07:22:42;101760.72;;;9.25;78.27
32735;BME280;19112;51.076;3.706;2024-02-28T07:25:08;101466.94;;;7.35;78.13
32735;BME280;19112;51.076;3.706;2024-02-28T07:27:34;102022.00;;;10.22;78.25
32735;BME280;19112;51.076;3.706;2024-02-28T07:30:02;101279.59;;;6.38;77.42
32735;BME280;19112;51.076;3.706;2024-02-28T07:32:32;101812.53;;;8.98;77.88
32735;BME280;19112;51.076;3.706;2024-02-28T07:35:02;101612.94;;;8.38;77.95
32735;BME280;19112;51.076;3.706;2024-02-28T07:37:28;101564.75;;;7.87;78.63
32735;BME280;19112;51.076;3.706;2024-02-28T07:39:54;101755.22;;;9.04;78.69
32735;BME280;19112;51.076;3.706;2024-02-28T07:42:22;101111.53;;;5.39;77.76
32735;BME280;19112;51.076;3.706;2024-02-28T07:44:48;101523.31;;;7.63;77.75
32735;BME280;19112;51.076;3.706;2024-02-28T07:47:19;101406.78;;;7.19;77.87
32735;BME280;19112;51.076;3.706;2024-02-28T07:49:45;101330.72;;;6.65;77.88
32735;BME280;19112;51.076;3.706;2024-02-28T07:52:12;101804.81;;;9.83;78.36
32735;BME280;19112;51.076;3.706;2024-02-28T07:54:38;101845.28;;;10.22;77.97
32735;BME280;19112;51.076;3.706;2024-02-28T07:57:06;101524.47;;;8.64;77.85
32735;BME280;19112;51.076;3.706;2024-02-28T07:59:42;101633.59;;;8.99;77.87
32735;BME280;19112;51.076;3.706;2024-02-28T08:02:08;101769.06;;;10.19;77.22
32735;BME280;19112;51.076;3.706;2024-02-28T08:04:35;101511.84;;;8.57;76.70
32735;BME280;19112;51.076;3.706;2024-02-28T08:07:02;101228.84;;;6.95;76.18
32735;BME280;19112;51.076;3.706;2024-02-28T08:09:29;101849.88;;;10.78;76.42
32735;BME280;19112;51.076;3.706;2024-02-28T08:11:55;101446.75;;;8.63;76.11
32735;BME280;19112;51.076;3.706;2024-02-28T08:14:22;101255.16;;;7.65;75.88
32735;BME280;19112;51.076;3.706;2024-02-28T08:16:48;101226.09;;;7.58;75.80
32735;BME280;19112;51.076;3.706;2024-02-28T08:19:14;101252.06;;;7.55;75.33
32735;BME280;19112;51.076;3.706;2024-02-28T08:21:40;101093.66;;;6.88;74.93
32735;BME280;19112;51.076;3.706;2024-02-28T08:24:08;101917.06;;;11.46;75.44
32735;BME280;19112;51.076;3.706;2024-02-28T08:26:35;102084.13;;;12.30;75.03
32735;BME280;19112;51.076;3.706;2024-02-28T08:29:01;101605.25;;;9.42;74.80
32735;BME280;19112;51.076;3.706;2024-02-28T08:31:28;101389.75;;;8.23;74.41
32735;BME280;19112;51.076;3.706;2024-02-28T08:33:56;101739.94;;;10.68;74.66
32735;BME280;19112;51.076;3.706;2024-02-28T08:36:22;101596.69;;;9.81;74.06
32735;BME280;19112;51.076;3.706;2024-02-28T08:38:47;101820.09;;;10.97;74.37
32735;BME280;19112;51.076;3.706;2024-02-28T08:41:15;101190.00;;;7.85;73.66
32735;BME280;19112;51.076;3.706;2024-02-28T08:43:45;101547.25;;;9.90;73.76
32735;BME280;19112;51.076;3.706;2024-02-28T08:46:14;101624.66;;;10.17;73.40
32735;BME280;19112;51.076;3.706;2024-02-28T08:48:42;101280.38;;;8.50;72.74
32735;BME280;19112;51.076;3.706;2024-02-28T08:51:08;101373.41;;;9.34;72.75
32735;BME280;19112;51.076;3.706;2024-02-28T08:53:35;101395.09;;;9.32;72.05
32735;BME280;19112;51.076;3.706;2024-02-28T08:56:01;101700.13;;;11.17;72.27
32735;BME280;19112;51.076;3.706;2024-02-28T08:58:27;101733.63;;;11.40;71.76
32735;BME280;19112;51.076;3.706;2024-02-28T09:00:53;101198.66;;;8.56;71.11
32735;BME280;19112;51.076;3.706;2024-02-28T09:03:20;101812.41;;;12.18;71.30
32735;BME280;19112;51.076;3.706;2024-02-28T09:05:48;101812.06;;;11.89;70.80
32735;BME280;19112;51.076;3.706;2024-02-28T09:08:14;102052.25;;;13.45;70.88
32735;BME280;19112;51.076;3.706;2024-02-28T09:10:40;101375.75;;;9.28;70.18
32735;BME280;19112;51.076;3.706;2024-02-28T09:13:07;101181.84;;;8.51;70.33
32735;BME280;19112;51.076;3.706;2024-02-28T09:15:35;101731.47;;;11.72;70.57
32735;BME280;19112;51.076;3.706;2024-02-28T09:18:02;101323.63;;;9.54;69.60
32735;BME280;19112;51.076;3.706;2024-02-28T09:20:29;101484.38;;;10.29;69.49
32735;BME280;19112;51.076;3.706;2024-02-28T09:22:55;102176.75;;;13.99;69.44
32735;BME280;19112;51.076;3.706;2024-02-28T09:25:22;101399.91;;;10.18;69.70
32735;BME280;19112;51.076;3.706;2024-02-28T09:27:51;101810.88;;;12.89;69.67
32735;BME280;19112;51.076;3.706;2024-02-28T09:30:20;101867.47;;;12.76;69.13
32735;BME280;19112;51.076;3.706;2024-02-28T09:32:46;102134.00;;;14.54;68.81
32735;BME280;19112;51.076;3.706;2024-02-28T09:35:12;101783.88;;;12.72;66.91
32735;BME280;19112;51.076;3.706;2024-02-28T09:37:39;101617.41;;;12.13;67.12
32735;BME280;19112;51.076;3.706;2024-02-28T09:40:09;101461.22;;;11.23;66.44
32735;BME280;19112;51.076;3.706;2024-02-28T09:42:36;101429.41;;;10.94;66.24
32735;BME280;19112;51.076;3.706;2024-02-28T09:45:04;101872.44;;;13.34;66.68
32735;BME280;19112;51.076;3.706;2024-02-28T09:47:30;102140.81;;;14.47;67.20
32735;BME280;19112;51.076;3.706;2024-02-28T09:49:58;101415.84;;;10.63;67.39
32735;BME280;19112;51.076;3.706;2024-02-28T09:52:26;101705.06;;;12.11;67.27
32735;BME280;19112;51.076;3.706;2024-02-28T09:54:53;101743.50;;;12.73;67.63
32735;BME280;19112;51.076;3.706;2024-02-28T09:57:23;101532.41;;;11.50;67.13
32735;BME280;19112;51.076;3.706;2024-02-28T09:59:56;101590.91;;;12.09;67.11
32735;BME280;19112;51.076;3.706;2024-02-28T10:02:23;101677.25;;;12.40;66.70
32735;BME280;19112;51.076;3.706;2024-02-28T10:04:50;101563.50;;;11.60;66.51
32735;BME280;19112;51.076;3.706;2024-02-28T10:07:17;101660.22;;;12.76;65.90
32735;BME280;19112;51.076;3.706;2024-02-28T10:09:46;101632.28;;;12.35;65.80
32735;BME280;19112;51.076;3.706;2024-02-28T10:12:14;101354.19;;;10.53;65.76
32735;BME280;19112;51.076;3.706;2024-02-28T10:14:40;101264.72;;;9.26;65.65
32735;BME280;19112;51.076;3.706;2024-02-28T10:17:06;101838.66;;;13.24;66.06
32735;BME280;19112;51.076;3.706;2024-02-28T10:19:35;101368.53;;;10.21;66.97
32735;BME280;19112;51.076;3.706;2024-02-28T10:22:01;101772.81;;;12.80;66.61
32735;BME280;19112;51.076;3.706;2024-02-28T10:24:28;102119.13;;;14.56;66.55
32735;BME280;19112;51.076;3.706;2024-02-28T10:26:57;101711.47;;;12.62;66.76
32735;BME280;19112;51.076;3.706;2024-02-28T10:29:26;101027.03;;;8.80;66.56
32735;BME280;19112;51.076;3.706;2024-02-28T10:31:55;101327.22;;;10.36;65.86
32735;BME280;19112;51.076;3.706;2024-02-28T10:34:23;101659.69;;;12.40;65.49
32735;BME280;19112;51.076;3.706;2024-02-28T10:36:52;101409.94;;;10.47;65.56
32735;BME280;19112;51.076;3.706;2024-02-28T10:39:21;101923.09;;;13.70;66.11
32735;BME280;19112;51.076;3.706;2024-02-28T10:41:47;101484.34;;;10.88;66.59
32735;BME280;19112;51.076;3.706;2024-02-28T10:44:17;101382.03;;;9.90;66.51
32735;BME280;19112;51.076;3.706;2024-02-28T10:46:49;101223.25;;;9.56;66.79
32735;BME280;19112;51.076;3.706;2024-02-28T10:49:15;102117.72;;;14.43;67.35
32735;BME280;19112;51.076;3.706;2024-02-28T10:51:46;101705.88;;;12.53;67.65
32735;BME280;19112;51.076;3.706;2024-02-28T10:54:16;101395.72;;;10.84;67.43
32735;BME280;19112;51.076;3.706;2024-02-28T10:56:46;101581.41;;;11.90;67.34
32735;BME280;19112;51.076;3.706;2024-02-28T10:59:12;101696.75;;;12.67;66.68
32735;BME280;19112;51.076;3.706;2024-02-28T11:01:43;101818.19;;;13.41;66.81
32735;BME280;19112;51.076;3.706;2024-02-28T11:04:13;102034.72;;;14.86;66.71
32735;BME280;19112;51.076;3.706;2024-02-28T11:06:56;102132.22;;;15.01;66.37
32735;BME280;19112;51.076;3.706;2024-02-28T11:09:25;101396.50;;;11.25;66.04
32735;BME280;19112;51.076;3.706;2024-02-28T11:11:54;101271.56;;;10.66;65.24
32735;BME280;19112;51.076;3.706;2024-02-28T11:14:22;101738.66;;;13.30;65.49
32735;BME280;19112;51.076;3.706;2024-02-28T11:17:04;102057.75;;;15.14;65.64
32735;BME280;19112;51.076;3.706;2024-02-28T11:19:32;101350.00;;;10.79;65.85
32735;BME280;19112;51.076;3.706;2024-02-28T11:22:00;102062.16;;;15.13;65.96
32735;BME280;19112;51.076;3.706;2024-02-28T11:24:33;101715.78;;;13.29;65.88
32735;BME280;19112;51.076;3.706;2024-02-28T11:26:59;101210.16;;;10.19;65.27
32735;BME280;19112;51.076;3.706;2024-02-28T11:29:27;101476.53;;;11.55;66.05
32735;BME280;19112;51.076;3.706;2024-02-28T11:31:54;101463.75;;;11.42;65.89
32735;BME280;19112;51.076;3.706;2024-02-28T11:34:21;101360.31;;;10.97;66.03
32735;BME280;19112;51.076;3.706;2024-02-28T11:36:51;101914.44;;;13.74;66.45
32735;BME280;19112;51.076;3.706;2024-02-28T11:39:17;101903.63;;;13.68;67.02
32735;BME280;19112;51.076;3.706;2024-02-28T11:41:45;101884.84;;;13.83;67.15
32735;BME280;19112;51.076;3.706;2024-02-28T11:44:19;101233.25;;;9.65;67.49
32735;BME280;19112;51.076;3.706;2024-02-28T11:46:46;102063.59;;;14.54;68.54
32735;BME280;19112;51.076;3.706;2024-02-28T11:49:15;101470.38;;;11.33;68.63
32735;BME280;19112;51.076;3.706;2024-02-28T11:51:42;101448.84;;;10.98;69.55
32735;BME280;19112;51.076;3.706;2024-02-28T11:54:09;101806.88;;;12.98;70.17
32735;BME280;19112;51.076;3.706;2024-02-28T11:56:39;101431.09;;;10.92;70.48
32735;BME280;19112;51.076;3.706;2024-02-28T11:59:05;101621.47;;;11.83;70.74
32735;BME280;19112;51.076;3.706;2024-02-28T12:01:41;101589.13;;;11.22;70.79
32735;BME280;19112;51.076;3.706;2024-02-28T12:04:10;101427.28;;;10.65;71.54
32735;BME280;19112;51.076;3.706;2024-02-28T12:06:37;101649.09;;;11.94;71.82
32735;BME280;19112;51.076;3.706;2024-02-28T12:09:08;101445.41;;;10.59;71.39
32735;BME280;19112;51.076;3.706;2024-02-28T12:11:37;101610.59;;;11.75;71.79
32735;BME280;19112;51.076;3.706;2024-02-28T12:14:04;101641.97;;;11.91;71.30
32735;BME280;19112;51.076;3.706;2024-02-28T12:16:32;101674.91;;;12.25;71.56
32735;BME280;19112;51.076;3.706;2024-02-28T12:18:59;101785.41;;;12.67;71.23
32735;BME280;19112;51.076;3.706;2024-02-28T12:21:25;102043.88;;;14.70;70.65
32735;BME280;19112;51.076;3.706;2024-02-28T12:23:51;101651.19;;;12.25;69.52
32735;BME280;19112;51.076;3.706;2024-02-28T12:26:17;101193.44;;;10.17;68.44
32735;BME280;19112;51.076;3.706;2024-02-28T12:28:44;101415.63;;;11.00;67.67
32735;BME280;19112;51.076;3.706;2024-02-28T12:31:10;101854.59;;;13.99;67.72
32735;BME280;19112;51.076;3.706;2024-02-28T12:33:38;101810.53;;;13.24;67.61
32735;BME280;19112;51.076;3.706;2024-02-28T12:36:04;101484.09;;;11.46;67.13
32735;BME280;19112;51.076;3.706;2024-02-28T12:38:30;101256.69;;;10.23;66.97
32735;BME280;19112;51.076;3.706;2024-02-28T12:40:57;101806.50;;;13.11;66.98
32735;BME280;19112;51.076;3.706;2024-02-28T12:43:24;101358.28;;;10.90;67.24
32735;BME280;19112;51.076;3.706;2024-02-28T12:45:51;101550.94;;;12.19;67.41
32735;BME280;19112;51.076;3.706;2024-02-28T12:48:17;102080.97;;;14.97;66.76
32735;BME280;19112;51.076;3.706;2024-02-28T12:50:44;101524.41;;;11.90;66.58
32735;BME280;19112;51.076;3.706;2024-02-28T12:53:10;101719.25;;;13.28;66.25
32735;BME280;19112;51.076;3.706;2024-02-28T12:55:37;101110.31;;;10.16;66.16
32735;BME280;19112;51.076;3.706;2024-02-28T12:58:04;101329.00;;;11.48;65.73